Time;durP1;ratioP1;P1;durP2;ratioP2;P2;SDS_P1;SDS_P2;PMS_P1;PMS_P2;Temp;Humidity;BMP_temperature;BMP_pressure;BME280_temperature;BME280_humidity;BME280_pressure;Samples;Min_cycle;Max_cycle;Signal;HPM_P1;HPM_P2
2023/08/29 00:00:51;;;;;;;8.68;1.98;;;;;;;;;;5033875;28;20029;-72
2023/08/29 00:03:18;;;;;;;9.88;1.77;;;;;;;;;;5029884;28;20072;-72
2023/08/29 00:05:44;;;;;;;7.30;1.80;;;;;;;;;;5032115;28;20143;-72
2023/08/29 00:08:10;;;;;;;6.97;1.73;;;;;;;;;;5035087;28;20112;-73
2023/08/29 00:10:36;;;;;;;8.25;1.60;;;;;;;;;;5032485;28;20063;-73
2023/08/29 00:13:02;;;;;;;10.55;1.83;;;;;;;;;;5038339;28;20262;-72
2023/08/29 00:15:29;;;;;;;8.27;1.80;;;;;;;;;;5037344;28;20029;-72
2023/08/29 00:17:55;;;;;;;8.43;1.88;;;;;;;;;;5035899;28;20329;-73
2023/08/29 00:20:21;;;;;;;10.43;1.75;;;;;;;;;;5030504;28;20123;-72
2023/08/29 00:22:47;;;;;;;8.10;1.63;;;;;;;;;;5035433;28;20040;-73
2023/08/29 00:25:13;;;;;;;10.80;1.80;;;;;;;;;;5034879;28;20028;-73
2023/08/29 00:27:39;;;;;;;10.63;1.92;;;;;;;;;;5036094;28;20370;-73
2023/08/29 00:30:06;;;;;;;7.70;1.58;;;;;;;;;;5034457;28;20028;-73
2023/08/29 00:32:33;;;;;;;7.47;1.73;;;;;;;;;;5030287;28;20481;-72
2023/08/29 00:34:59;;;;;;;5.85;1.42;;;;;;;;;;5037452;28;20041;-72
2023/08/29 00:37:25;;;;;;;9.30;1.70;;;;;;;;;;5036591;28;20253;-72
2023/08/29 00:39:51;;;;;;;10.95;1.52;;;;;;;;;;5042293;28;20028;-73
2023/08/29 00:42:18;;;;;;;9.18;1.52;;;;;;;;;;5036345;28;20422;-72
2023/08/29 00:44:44;;;;;;;8.65;1.63;;;;;;;;;;5035870;28;20033;-72
2023/08/29 00:47:10;;;;;;;9.05;1.85;;;;;;;;;;5037655;28;20423;-72
2023/08/29 00:49:36;;;;;;;6.90;1.55;;;;;;;;;;5032026;28;20701;-72
2023/08/29 00:52:03;;;;;;;10.38;1.75;;;;;;;;;;5040987;28;20036;-72
2023/08/29 00:54:29;;;;;;;9.75;1.50;;;;;;;;;;5030032;28;20025;-73
2023/08/29 00:56:56;;;;;;;8.50;2.00;;;;;;;;;;5037188;28;20032;-73
2023/08/29 00:59:22;;;;;;;9.88;1.67;;;;;;;;;;5032328;28;20035;-73
2023/08/29 01:01:48;;;;;;;7.38;1.50;;;;;;;;;;5040238;28;20038;-73
2023/08/29 01:04:15;;;;;;;9.10;1.70;;;;;;;;;;5035679;28;20235;-73
2023/08/29 01:06:41;;;;;;;8.07;1.70;;;;;;;;;;5032040;28;20024;-73
2023/08/29 01:09:07;;;;;;;7.70;1.40;;;;;;;;;;5039891;28;20025;-73
2023/08/29 01:11:51;;;;;;;6.93;1.30;;;;;;;;;;5033725;28;20032;-73
2023/08/29 01:14:23;;;;;;;8.07;1.52;;;;;;;;;;5033778;28;20078;-72
2023/08/29 01:16:53;;;;;;;7.80;1.60;;;;;;;;;;5036206;28;20501;-72
2023/08/29 01:19:22;;;;;;;8.57;1.90;;;;;;;;;;5032199;28;20025;-72
2023/08/29 01:21:55;;;;;;;8.40;1.92;;;;;;;;;;5035244;28;20046;-73
2023/08/29 01:24:25;;;;;;;7.93;1.63;;;;;;;;;;5035545;28;20024;-73
2023/08/29 01:26:52;;;;;;;10.45;1.95;;;;;;;;;;5033794;28;20509;-73
2023/08/29 01:29:18;;;;;;;7.35;1.88;;;;;;;;;;5034603;28;20500;-73
2023/08/29 01:31:45;;;;;;;8.85;1.63;;;;;;;;;;5032784;28;20049;-73
2023/08/29 01:34:12;;;;;;;7.32;1.67;;;;;;;;;;5031933;28;20701;-74
2023/08/29 01:36:39;;;;;;;9.57;1.70;;;;;;;;;;5033903;28;20137;-73
2023/08/29 01:39:05;;;;;;;6.13;1.52;;;;;;;;;;5030894;28;20365;-73
2023/08/29 01:41:31;;;;;;;9.93;1.30;;;;;;;;;;5029371;28;20041;-73
2023/08/29 01:43:57;;;;;;;5.68;1.38;;;;;;;;;;5030224;28;20033;-73
2023/08/29 01:46:24;;;;;;;7.03;1.30;;;;;;;;;;5030738;28;20051;-72
2023/08/29 01:48:50;;;;;;;5.55;1.40;;;;;;;;;;5032400;28;20013;-72
2023/08/29 01:51:16;;;;;;;6.97;1.48;;;;;;;;;;5030899;28;20036;-73
2023/08/29 01:53:42;;;;;;;6.20;1.30;;;;;;;;;;5028559;28;20024;-73
2023/08/29 01:56:08;;;;;;;9.30;1.58;;;;;;;;;;5030976;28;20036;-73
2023/08/29 01:58:36;;;;;;;5.68;1.17;;;;;;;;;;5033260;28;20060;-74
2023/08/29 02:01:02;;;;;;;11.15;1.75;;;;;;;;;;5033568;28;20029;-73
2023/08/29 02:03:28;;;;;;;7.53;1.38;;;;;;;;;;5033225;28;20172;-73
2023/08/29 02:05:54;;;;;;;6.43;1.27;;;;;;;;;;5035013;28;20624;-73
2023/08/29 02:08:21;;;;;;;11.82;1.80;;;;;;;;;;5035008;28;20138;-73
2023/08/29 02:10:47;;;;;;;5.97;1.20;;;;;;;;;;5029718;28;20037;-73
2023/08/29 02:13:13;;;;;;;8.63;1.63;;;;;;;;;;5031672;28;20520;-73
2023/08/29 02:15:39;;;;;;;6.60;1.50;;;;;;;;;;5028317;28;20032;-73
2023/08/29 02:18:05;;;;;;;10.63;1.85;;;;;;;;;;5035324;28;20509;-73
2023/08/29 02:20:31;;;;;;;10.52;1.70;;;;;;;;;;5032445;28;20437;-73
2023/08/29 02:22:57;;;;;;;7.28;1.45;;;;;;;;;;5031936;28;20502;-73
2023/08/29 02:25:24;;;;;;;10.20;2.20;;;;;;;;;;5032864;28;20032;-73
2023/08/29 02:27:50;;;;;;;6.80;1.60;;;;;;;;;;5039667;28;20029;-73
2023/08/29 02:30:16;;;;;;;7.72;1.88;;;;;;;;;;5041363;28;20036;-73
2023/08/29 02:32:42;;;;;;;8.85;1.88;;;;;;;;;;5035380;28;20858;-73
2023/08/29 02:35:08;;;;;;;11.77;2.38;;;;;;;;;;5039110;28;20130;-73
2023/08/29 02:37:35;;;;;;;10.30;2.17;;;;;;;;;;5035811;28;20039;-73
2023/08/29 02:40:01;;;;;;;9.52;2.15;;;;;;;;;;5038289;28;20592;-73
2023/08/29 02:42:27;;;;;;;8.15;2.15;;;;;;;;;;5039875;28;20036;-73
2023/08/29 02:44:53;;;;;;;12.20;2.40;;;;;;;;;;5034689;28;20541;-73
2023/08/29 02:47:19;;;;;;;8.70;2.22;;;;;;;;;;5039761;28;20033;-73
2023/08/29 02:49:46;;;;;;;9.90;2.15;;;;;;;;;;5040922;28;20304;-73
2023/08/29 02:52:12;;;;;;;12.00;2.70;;;;;;;;;;5039287;28;20569;-72
2023/08/29 02:54:38;;;;;;;8.65;2.50;;;;;;;;;;5028982;28;20849;-72
2023/08/29 02:57:04;;;;;;;10.50;2.28;;;;;;;;;;5041976;28;20384;-73
2023/08/29 02:59:30;;;;;;;7.90;2.05;;;;;;;;;;5037219;28;20449;-72
2023/08/29 03:01:57;;;;;;;14.15;2.50;;;;;;;;;;5040866;28;20031;-72
2023/08/29 03:04:23;;;;;;;11.50;2.60;;;;;;;;;;5033840;28;20032;-73
2023/08/29 03:06:51;;;;;;;8.75;2.33;;;;;;;;;;5037602;28;20804;-72
2023/08/29 03:09:18;;;;;;;8.27;2.20;;;;;;;;;;5040470;28;20035;-73
2023/08/29 03:11:44;;;;;;;9.45;2.00;;;;;;;;;;5041803;28;20383;-72
2023/08/29 03:14:10;;;;;;;8.43;2.00;;;;;;;;;;5036941;28;20149;-72
2023/08/29 03:16:36;;;;;;;9.30;2.00;;;;;;;;;;5034527;28;20025;-72
2023/08/29 03:19:03;;;;;;;11.02;1.60;;;;;;;;;;5037065;28;20063;-72
2023/08/29 03:21:29;;;;;;;8.13;1.80;;;;;;;;;;5030882;28;20451;-72
2023/08/29 03:23:55;;;;;;;7.78;1.75;;;;;;;;;;5042938;28;20622;-71
2023/08/29 03:26:21;;;;;;;7.63;1.75;;;;;;;;;;5032936;28;20032;-72
2023/08/29 03:28:47;;;;;;;9.30;2.30;;;;;;;;;;5038518;28;20033;-72
2023/08/29 03:31:14;;;;;;;9.60;2.80;;;;;;;;;;5034640;28;20021;-72
2023/08/29 03:33:41;;;;;;;6.53;1.70;;;;;;;;;;5033914;28;20418;-72
2023/08/29 03:36:07;;;;;;;7.15;1.80;;;;;;;;;;5035487;28;20028;-72
2023/08/29 03:38:37;;;;;;;12.13;2.15;;;;;;;;;;5032292;28;20041;-73
2023/08/29 03:41:04;;;;;;;9.70;1.85;;;;;;;;;;5032220;28;20048;-72
2023/08/29 03:43:31;;;;;;;8.30;1.45;;;;;;;;;;5038994;28;20155;-73
2023/08/29 03:46:00;;;;;;;7.97;1.90;;;;;;;;;;5033442;28;20577;-72
2023/08/29 03:48:27;;;;;;;9.95;2.00;;;;;;;;;;5033916;28;20060;-72
2023/08/29 03:50:53;;;;;;;8.55;1.80;;;;;;;;;;5037298;28;20025;-72
2023/08/29 03:53:19;;;;;;;10.75;2.38;;;;;;;;;;5033823;28;20043;-72
2023/08/29 03:55:46;;;;;;;7.47;1.70;;;;;;;;;;5038106;28;20476;-72
2023/08/29 03:58:12;;;;;;;8.95;1.80;;;;;;;;;;5039280;28;20052;-73
2023/08/29 04:00:39;;;;;;;12.20;2.15;;;;;;;;;;5039470;28;20039;-72
2023/08/29 04:03:06;;;;;;;7.00;1.90;;;;;;;;;;5033720;28;20039;-73
2023/08/29 04:05:34;;;;;;;10.98;2.05;;;;;;;;;;5035748;28;20055;-73
2023/08/29 04:08:02;;;;;;;9.43;2.20;;;;;;;;;;5037911;28;20028;-72
2023/08/29 04:10:28;;;;;;;9.57;2.10;;;;;;;;;;5032478;28;20025;-73
2023/08/29 04:12:54;;;;;;;10.50;2.40;;;;;;;;;;5040756;28;20044;-72
2023/08/29 04:15:20;;;;;;;10.68;2.17;;;;;;;;;;5031020;28;20125;-73
2023/08/29 04:17:47;;;;;;;7.63;1.92;;;;;;;;;;5034513;28;20044;-72
2023/08/29 04:20:13;;;;;;;8.10;2.05;;;;;;;;;;5034170;28;20025;-72
2023/08/29 04:22:39;;;;;;;8.13;2.30;;;;;;;;;;5031799;28;20127;-73
2023/08/29 04:25:06;;;;;;;11.25;2.38;;;;;;;;;;5034153;28;20395;-73
2023/08/29 04:27:32;;;;;;;9.75;2.40;;;;;;;;;;5034073;28;20025;-73
2023/08/29 04:29:59;;;;;;;9.52;2.58;;;;;;;;;;5037149;28;20551;-73
2023/08/29 04:32:25;;;;;;;9.43;2.25;;;;;;;;;;5033644;28;20107;-73
2023/08/29 04:34:51;;;;;;;7.13;1.90;;;;;;;;;;5035502;28;20039;-73
2023/08/29 04:37:17;;;;;;;10.63;2.78;;;;;;;;;;5031813;28;20044;-73
2023/08/29 04:39:44;;;;;;;8.32;2.25;;;;;;;;;;5031832;28;20307;-73
2023/08/29 04:42:10;;;;;;;9.45;2.50;;;;;;;;;;5035531;28;20542;-73
2023/08/29 04:44:36;;;;;;;10.15;2.50;;;;;;;;;;5031358;28;20106;-73
2023/08/29 04:47:03;;;;;;;11.65;2.65;;;;;;;;;;5045147;28;20033;-73
2023/08/29 04:49:30;;;;;;;8.93;2.80;;;;;;;;;;5036042;28;20052;-72
2023/08/29 04:51:56;;;;;;;10.20;2.95;;;;;;;;;;5038137;28;20212;-72
2023/08/29 04:54:22;;;;;;;10.77;2.55;;;;;;;;;;5031407;28;20375;-73
2023/08/29 04:56:49;;;;;;;11.32;2.50;;;;;;;;;;5041461;28;20491;-73
2023/08/29 04:59:15;;;;;;;8.50;2.20;;;;;;;;;;5038169;28;20679;-72
2023/08/29 05:01:41;;;;;;;13.48;2.85;;;;;;;;;;5034324;28;20044;-73
2023/08/29 05:04:08;;;;;;;10.98;2.72;;;;;;;;;;5039507;28;20118;-72
2023/08/29 05:06:34;;;;;;;10.80;2.70;;;;;;;;;;5035552;28;20039;-72
2023/08/29 05:09:00;;;;;;;9.20;2.92;;;;;;;;;;5037334;28;20025;-72
2023/08/29 05:11:27;;;;;;;9.93;2.80;;;;;;;;;;5036806;28;20311;-73
2023/08/29 05:13:53;;;;;;;15.80;3.92;;;;;;;;;;5040020;28;20037;-73
2023/08/29 05:16:19;;;;;;;9.95;2.78;;;;;;;;;;5037305;28;20478;-72
2023/08/29 05:18:45;;;;;;;10.00;2.75;;;;;;;;;;5038912;28;20841;-73
2023/08/29 05:21:11;;;;;;;10.07;2.88;;;;;;;;;;5037704;28;20052;-73
2023/08/29 05:23:37;;;;;;;10.57;2.97;;;;;;;;;;5039874;28;21303;-72
2023/08/29 05:26:04;;;;;;;11.27;2.47;;;;;;;;;;5037439;28;20033;-72
2023/08/29 05:28:31;;;;;;;8.90;2.85;;;;;;;;;;5038875;28;20119;-72
2023/08/29 05:30:57;;;;;;;15.13;2.88;;;;;;;;;;5035377;28;20025;-72
2023/08/29 05:33:23;;;;;;;10.40;2.78;;;;;;;;;;5041425;28;20036;-73
2023/08/29 05:35:49;;;;;;;10.98;2.50;;;;;;;;;;5040769;28;20038;-73
2023/08/29 05:38:15;;;;;;;9.48;2.55;;;;;;;;;;5039074;28;20047;-72
2023/08/29 05:40:41;;;;;;;12.38;3.22;;;;;;;;;;5040575;28;20052;-73
2023/08/29 05:43:07;;;;;;;10.63;2.90;;;;;;;;;;5036602;28;20221;-72
2023/08/29 05:45:34;;;;;;;9.30;2.78;;;;;;;;;;5042201;28;20060;-72
2023/08/29 05:48:00;;;;;;;8.35;2.40;;;;;;;;;;5040561;28;20412;-73
2023/08/29 05:50:26;;;;;;;9.90;2.72;;;;;;;;;;5036988;28;20097;-72
2023/08/29 05:52:52;;;;;;;9.93;2.90;;;;;;;;;;5036770;28;20507;-73
2023/08/29 05:55:18;;;;;;;9.95;2.88;;;;;;;;;;5036813;28;20090;-72
2023/08/29 05:57:44;;;;;;;8.35;2.35;;;;;;;;;;5038401;28;20461;-72
2023/08/29 06:00:13;;;;;;;9.43;2.53;;;;;;;;;;5042966;28;20131;-72
2023/08/29 06:02:39;;;;;;;12.20;3.20;;;;;;;;;;5039750;28;20028;-73
2023/08/29 06:05:06;;;;;;;11.57;3.30;;;;;;;;;;5045128;28;20021;-73
2023/08/29 06:07:33;;;;;;;8.50;2.92;;;;;;;;;;5041047;28;20021;-72
2023/08/29 06:09:59;;;;;;;12.48;2.83;;;;;;;;;;5041816;28;20088;-73
2023/08/29 06:12:26;;;;;;;11.07;2.90;;;;;;;;;;5042946;28;20047;-73
2023/08/29 06:14:52;;;;;;;9.13;2.78;;;;;;;;;;5049116;28;20042;-73
2023/08/29 06:17:18;;;;;;;11.43;2.92;;;;;;;;;;5040914;28;20096;-73
2023/08/29 06:19:45;;;;;;;11.40;2.90;;;;;;;;;;5043374;28;20358;-73
2023/08/29 06:22:11;;;;;;;7.93;2.65;;;;;;;;;;5040843;28;20101;-74
2023/08/29 06:24:37;;;;;;;9.75;3.10;;;;;;;;;;5045949;28;20071;-73
2023/08/29 06:27:03;;;;;;;11.45;2.50;;;;;;;;;;5040083;28;20463;-73
2023/08/29 06:29:29;;;;;;;10.93;2.80;;;;;;;;;;5040381;28;20047;-73
2023/08/29 06:31:56;;;;;;;8.63;2.40;;;;;;;;;;5039393;28;20083;-73
2023/08/29 06:34:22;;;;;;;8.43;2.20;;;;;;;;;;5040173;28;20637;-73
2023/08/29 06:36:48;;;;;;;10.40;2.40;;;;;;;;;;5038553;28;20916;-73
2023/08/29 06:39:14;;;;;;;12.57;2.83;;;;;;;;;;5040064;28;20133;-72
2023/08/29 06:41:40;;;;;;;9.68;2.78;;;;;;;;;;5038102;28;21118;-73
2023/08/29 06:44:07;;;;;;;11.10;3.00;;;;;;;;;;5042770;28;20039;-74
2023/08/29 06:46:33;;;;;;;11.73;2.70;;;;;;;;;;5037159;28;20465;-73
2023/08/29 06:49:00;;;;;;;12.18;3.00;;;;;;;;;;5046431;28;20036;-73
2023/08/29 06:51:26;;;;;;;9.43;2.35;;;;;;;;;;5044989;28;20028;-73
2023/08/29 06:53:52;;;;;;;11.18;2.55;;;;;;;;;;5043043;28;20590;-73
2023/08/29 06:56:18;;;;;;;9.82;2.72;;;;;;;;;;5035766;28;20490;-73
2023/08/29 06:58:45;;;;;;;11.70;2.72;;;;;;;;;;5038758;28;20501;-73
2023/08/29 07:01:11;;;;;;;13.07;3.10;;;;;;;;;;5042527;28;20367;-73
2023/08/29 07:03:37;;;;;;;10.15;2.47;;;;;;;;;;5040383;28;20566;-73
2023/08/29 07:06:03;;;;;;;10.50;2.78;;;;;;;;;;5037502;28;20039;-73
2023/08/29 07:08:29;;;;;;;13.25;3.50;;;;;;;;;;5041309;28;20024;-73
2023/08/29 07:10:55;;;;;;;10.10;2.65;;;;;;;;;;5042977;28;20459;-73
2023/08/29 07:13:22;;;;;;;10.43;2.40;;;;;;;;;;5039614;28;20496;-73
2023/08/29 07:15:48;;;;;;;12.27;2.85;;;;;;;;;;5037667;28;20460;-73
2023/08/29 07:18:14;;;;;;;15.68;2.72;;;;;;;;;;5046611;28;20119;-73
2023/08/29 07:20:40;;;;;;;10.65;2.60;;;;;;;;;;5036787;28;20036;-73
2023/08/29 07:23:07;;;;;;;9.73;2.33;;;;;;;;;;5042559;28;20035;-73
2023/08/29 07:25:40;;;;;;;12.10;2.70;;;;;;;;;;5034532;28;20025;-73
2023/08/29 07:28:07;;;;;;;10.35;2.53;;;;;;;;;;5042872;28;20619;-74
2023/08/29 07:30:33;;;;;;;13.77;3.08;;;;;;;;;;5042467;28;20972;-74
2023/08/29 07:32:59;;;;;;;10.93;2.70;;;;;;;;;;5048282;28;20423;-73
2023/08/29 07:35:25;;;;;;;11.82;2.88;;;;;;;;;;5037296;28;20701;-73
2023/08/29 07:37:52;;;;;;;10.27;2.55;;;;;;;;;;5045342;28;20536;-74
2023/08/29 07:40:18;;;;;;;10.02;2.72;;;;;;;;;;5038850;28;20412;-73
2023/08/29 07:42:44;;;;;;;11.10;2.58;;;;;;;;;;5044000;28;20102;-73
2023/08/29 07:45:10;;;;;;;10.75;2.80;;;;;;;;;;5036851;28;20111;-73
2023/08/29 07:47:37;;;;;;;8.27;2.42;;;;;;;;;;5040760;28;20076;-72
2023/08/29 07:50:03;;;;;;;11.32;2.80;;;;;;;;;;5044485;28;20012;-73
2023/08/29 07:52:29;;;;;;;8.98;2.70;;;;;;;;;;5038113;28;20036;-73
2023/08/29 07:54:58;;;;;;;9.00;2.63;;;;;;;;;;5043869;28;20028;-73
2023/08/29 07:57:24;;;;;;;13.93;2.90;;;;;;;;;;5040518;28;20032;-73
2023/08/29 07:59:50;;;;;;;9.82;2.55;;;;;;;;;;5039949;28;20058;-72
2023/08/29 08:02:16;;;;;;;10.23;2.72;;;;;;;;;;5041991;28;20377;-72
2023/08/29 08:04:42;;;;;;;9.60;3.08;;;;;;;;;;5041237;28;20090;-72
2023/08/29 08:07:09;;;;;;;10.57;2.90;;;;;;;;;;5043945;28;20024;-72
2023/08/29 08:09:35;;;;;;;13.05;2.65;;;;;;;;;;5037724;28;20029;-73
2023/08/29 08:12:02;;;;;;;11.52;3.10;;;;;;;;;;5045280;28;20710;-72
2023/08/29 08:14:28;;;;;;;11.82;2.90;;;;;;;;;;5036547;28;20132;-72
2023/08/29 08:16:54;;;;;;;11.18;3.00;;;;;;;;;;5039883;28;20647;-72
2023/08/29 08:19:20;;;;;;;12.60;3.00;;;;;;;;;;5039394;28;20142;-72
2023/08/29 08:21:47;;;;;;;9.65;2.70;;;;;;;;;;5041601;28;20040;-73
2023/08/29 08:24:13;;;;;;;10.38;2.50;;;;;;;;;;5037680;28;20029;-72
2023/08/29 08:26:39;;;;;;;12.95;2.95;;;;;;;;;;5038793;28;20114;-72
2023/08/29 08:29:05;;;;;;;16.25;3.55;;;;;;;;;;5038595;28;20036;-72
2023/08/29 08:31:32;;;;;;;10.43;2.92;;;;;;;;;;5032369;28;20033;-73
2023/08/29 08:33:58;;;;;;;13.48;3.25;;;;;;;;;;5042291;28;20693;-72
2023/08/29 08:36:24;;;;;;;11.02;2.70;;;;;;;;;;5036387;28;20059;-72
2023/08/29 08:38:50;;;;;;;9.13;2.88;;;;;;;;;;5044752;28;20035;-72
2023/08/29 08:41:17;;;;;;;9.98;2.90;;;;;;;;;;5041733;28;20135;-73
2023/08/29 08:43:44;;;;;;;10.98;2.90;;;;;;;;;;5041040;28;20347;-72
2023/08/29 08:46:11;;;;;;;10.38;2.72;;;;;;;;;;5038962;28;20025;-72
2023/08/29 08:48:38;;;;;;;12.52;2.85;;;;;;;;;;5040416;28;20025;-72
2023/08/29 08:51:05;;;;;;;11.00;2.58;;;;;;;;;;5046616;28;20429;-73
2023/08/29 08:53:31;;;;;;;9.10;2.45;;;;;;;;;;5035406;28;20148;-72
2023/08/29 08:55:58;;;;;;;10.55;2.85;;;;;;;;;;5040923;28;20044;-72
2023/08/29 08:58:24;;;;;;;9.43;2.90;;;;;;;;;;5034358;28;20296;-73
2023/08/29 09:00:50;;;;;;;9.50;2.78;;;;;;;;;;5038288;28;20142;-72
2023/08/29 09:03:16;;;;;;;11.23;2.20;;;;;;;;;;5043392;28;20027;-72
2023/08/29 09:05:43;;;;;;;11.02;2.80;;;;;;;;;;5043915;28;20589;-73
2023/08/29 09:08:09;;;;;;;11.27;3.10;;;;;;;;;;5044112;28;20031;-72
2023/08/29 09:10:39;;;;;;;8.75;2.80;;;;;;;;;;5041745;28;20025;-72
2023/08/29 09:13:05;;;;;;;13.55;3.65;;;;;;;;;;5043378;28;20029;-72
2023/08/29 09:15:34;;;;;;;11.73;3.28;;;;;;;;;;5034392;28;20029;-72
2023/08/29 09:18:00;;;;;;;10.20;3.10;;;;;;;;;;5036852;28;20017;-72
2023/08/29 09:20:30;;;;;;;10.50;2.97;;;;;;;;;;5041392;28;20033;-72
2023/08/29 09:22:56;;;;;;;13.45;2.97;;;;;;;;;;5042101;28;20028;-72
2023/08/29 09:25:26;;;;;;;9.77;3.13;;;;;;;;;;5039172;28;20577;-72
2023/08/29 09:27:53;;;;;;;12.45;4.60;;;;;;;;;;5046705;28;20497;-70
2023/08/29 09:30:19;;;;;;;12.30;4.13;;;;;;;;;;5035378;28;20029;-72
2023/08/29 09:32:52;;;;;;;9.23;3.00;;;;;;;;;;5040989;28;20028;-73
2023/08/29 09:35:21;;;;;;;14.23;3.03;;;;;;;;;;5034714;28;20454;-72
2023/08/29 09:37:52;;;;;;;11.60;2.90;;;;;;;;;;5041445;28;20028;-73
2023/08/29 09:40:20;;;;;;;13.07;3.38;;;;;;;;;;5038774;28;20017;-73
2023/08/29 09:43:00;;;;;;;12.95;2.97;;;;;;;;;;5036993;28;20078;-73
2023/08/29 09:45:31;;;;;;;11.02;2.70;;;;;;;;;;5038184;28;20352;-73
2023/08/29 09:48:03;;;;;;;19.60;4.13;;;;;;;;;;5034987;28;20415;-73
2023/08/29 09:50:30;;;;;;;9.80;3.15;;;;;;;;;;5037026;28;20028;-73
2023/08/29 09:52:57;;;;;;;11.13;3.08;;;;;;;;;;5038378;28;20039;-73
2023/08/29 09:55:24;;;;;;;11.15;2.90;;;;;;;;;;5037714;28;20096;-73
2023/08/29 09:57:52;;;;;;;12.25;3.17;;;;;;;;;;5041125;28;20086;-73
2023/08/29 10:00:20;;;;;;;9.88;2.63;;;;;;;;;;5042557;28;20029;-73
2023/08/29 10:02:47;;;;;;;12.07;3.05;;;;;;;;;;5037992;28;21210;-73
2023/08/29 10:05:13;;;;;;;12.25;3.00;;;;;;;;;;5039812;28;20032;-73
2023/08/29 10:07:44;;;;;;;12.32;3.15;;;;;;;;;;5039884;28;20106;-73
2023/08/29 10:10:11;;;;;;;11.18;2.83;;;;;;;;;;5041999;28;20025;-73
2023/08/29 10:12:38;;;;;;;10.63;2.70;;;;;;;;;;5032852;28;20133;-73
2023/08/29 10:15:04;;;;;;;9.38;2.80;;;;;;;;;;5040505;28;20040;-74
2023/08/29 10:17:32;;;;;;;11.00;2.47;;;;;;;;;;5039209;28;20497;-73
2023/08/29 10:20:06;;;;;;;12.30;2.80;;;;;;;;;;5043505;28;20130;-72
2023/08/29 10:22:33;;;;;;;15.65;3.38;;;;;;;;;;5038059;28;20267;-73
2023/08/29 10:25:00;;;;;;;14.98;3.03;;;;;;;;;;5040281;28;20341;-73
2023/08/29 10:27:26;;;;;;;13.80;2.65;;;;;;;;;;5036057;28;20101;-73
2023/08/29 10:29:53;;;;;;;9.70;2.55;;;;;;;;;;5041677;28;20126;-74
2023/08/29 10:32:20;;;;;;;9.02;2.50;;;;;;;;;;5035289;28;20029;-72
2023/08/29 10:34:46;;;;;;;8.23;2.15;;;;;;;;;;5037629;28;20029;-73
2023/08/29 10:37:19;;;;;;;9.43;2.75;;;;;;;;;;5037837;28;20036;-73
2023/08/29 10:39:46;;;;;;;6.93;2.05;;;;;;;;;;5038090;28;20457;-73
2023/08/29 10:42:15;;;;;;;13.90;2.25;;;;;;;;;;5037541;28;20049;-73
2023/08/29 10:44:42;;;;;;;14.48;2.08;;;;;;;;;;5037641;28;20081;-73
2023/08/29 10:47:27;;;;;;;8.25;1.77;;;;;;;;;;5040969;28;20024;-73
2023/08/29 10:50:02;;;;;;;11.18;2.65;;;;;;;;;;5043351;28;20118;-73
2023/08/29 10:52:36;;;;;;;9.55;1.80;;;;;;;;;;5036799;28;20024;-73
2023/08/29 10:55:08;;;;;;;7.50;1.65;;;;;;;;;;5041411;28;20554;-73
2023/08/29 10:57:34;;;;;;;5.25;1.13;;;;;;;;;;5043231;28;20033;-73
2023/08/29 11:00:01;;;;;;;7.90;1.48;;;;;;;;;;5042720;28;20468;-73
2023/08/29 11:02:31;;;;;;;7.63;1.50;;;;;;;;;;5040281;28;20549;-73
2023/08/29 11:05:03;;;;;;;7.40;1.30;;;;;;;;;;5042455;28;20029;-73
2023/08/29 11:07:29;;;;;;;6.72;1.58;;;;;;;;;;5041141;28;20364;-73
2023/08/29 11:10:14;;;;;;;6.22;1.40;;;;;;;;;;5041965;28;20044;-73
2023/08/29 11:12:59;;;;;;;6.85;1.50;;;;;;;;;;5043249;28;20378;-73
2023/08/29 11:15:44;;;;;;;5.32;1.40;;;;;;;;;;5039985;28;20099;-73
2023/08/29 11:18:22;;;;;;;6.28;1.35;;;;;;;;;;5047967;28;20044;-73
2023/08/29 11:20:48;;;;;;;5.45;1.25;;;;;;;;;;5038890;28;20064;-73
2023/08/29 11:23:15;;;;;;;7.68;1.88;;;;;;;;;;5041085;28;20044;-73
2023/08/29 11:25:42;;;;;;;6.80;1.55;;;;;;;;;;5031015;28;20036;-73
2023/08/29 11:28:08;;;;;;;6.57;1.30;;;;;;;;;;5037203;28;20031;-73
2023/08/29 11:30:34;;;;;;;5.32;1.10;;;;;;;;;;5036599;28;20859;-73
2023/08/29 11:33:03;;;;;;;5.00;1.15;;;;;;;;;;5035255;28;20119;-73
2023/08/29 11:35:30;;;;;;;8.40;1.70;;;;;;;;;;5032134;28;20106;-72
2023/08/29 11:37:56;;;;;;;6.22;1.30;;;;;;;;;;5037096;28;20024;-72
2023/08/29 11:40:22;;;;;;;5.18;1.10;;;;;;;;;;5033435;28;20582;-73
2023/08/29 11:42:48;;;;;;;6.50;1.50;;;;;;;;;;5033596;28;20099;-73
2023/08/29 11:45:16;;;;;;;5.57;1.35;;;;;;;;;;5039816;28;20352;-73
2023/08/29 11:47:43;;;;;;;4.53;1.30;;;;;;;;;;5031686;28;20021;-73
2023/08/29 11:50:11;;;;;;;7.38;1.40;;;;;;;;;;5038017;28;20286;-73
2023/08/29 11:52:38;;;;;;;6.18;1.20;;;;;;;;;;5034265;28;20585;-73
2023/08/29 11:55:08;;;;;;;3.72;0.98;;;;;;;;;;5034659;28;20024;-73
2023/08/29 11:57:35;;;;;;;6.72;1.30;;;;;;;;;;5035072;28;20056;-73
2023/08/29 12:00:04;;;;;;;7.07;1.70;;;;;;;;;;5040872;28;20031;-73
2023/08/29 12:02:31;;;;;;;8.73;1.80;;;;;;;;;;5029739;28;20755;-73
2023/08/29 12:04:57;;;;;;;5.55;1.70;;;;;;;;;;5039000;28;20063;-73
2023/08/29 12:07:24;;;;;;;7.72;1.40;;;;;;;;;;5036709;28;20029;-73
2023/08/29 12:09:53;;;;;;;5.93;1.25;;;;;;;;;;5040839;28;20024;-73
2023/08/29 12:12:33;;;;;;;5.25;1.20;;;;;;;;;;5043080;28;20121;-73
2023/08/29 12:15:00;;;;;;;5.78;1.70;;;;;;;;;;5040988;28;20043;-74
2023/08/29 12:17:39;;;;;;;5.78;1.25;;;;;;;;;;5034306;28;20027;-73
2023/08/29 12:20:12;;;;;;;5.60;1.13;;;;;;;;;;5038205;28;20036;-74
2023/08/29 12:22:42;;;;;;;4.35;1.00;;;;;;;;;;5035693;28;21806;-74
2023/08/29 12:25:09;;;;;;;4.97;1.30;;;;;;;;;;5044482;28;20021;-73
2023/08/29 12:27:35;;;;;;;6.63;1.30;;;;;;;;;;5037356;28;20139;-73
2023/08/29 12:30:02;;;;;;;7.60;1.48;;;;;;;;;;5040212;28;20501;-73
2023/08/29 12:32:28;;;;;;;4.70;1.05;;;;;;;;;;5033017;28;20036;-74
2023/08/29 12:34:56;;;;;;;5.18;1.20;;;;;;;;;;5036275;28;20825;-73
2023/08/29 12:37:22;;;;;;;7.82;1.35;;;;;;;;;;5034743;28;20395;-73
2023/08/29 12:39:49;;;;;;;4.95;1.20;;;;;;;;;;5040086;28;20424;-73
2023/08/29 12:42:15;;;;;;;5.47;1.10;;;;;;;;;;5042258;28;20113;-73
2023/08/29 12:44:41;;;;;;;11.98;2.53;;;;;;;;;;5035469;28;20043;-73
2023/08/29 12:47:07;;;;;;;16.13;2.80;;;;;;;;;;5039333;28;20671;-73
2023/08/29 12:49:35;;;;;;;18.95;3.15;;;;;;;;;;5035408;28;20029;-73
2023/08/29 12:52:01;;;;;;;13.27;2.78;;;;;;;;;;5034442;28;20028;-73
2023/08/29 12:54:30;;;;;;;10.43;2.80;;;;;;;;;;5037225;28;20053;-73
2023/08/29 12:56:57;;;;;;;13.30;2.30;;;;;;;;;;5039824;28;20063;-74
2023/08/29 12:59:23;;;;;;;9.38;2.22;;;;;;;;;;5035669;28;20523;-74
2023/08/29 13:01:50;;;;;;;7.65;1.80;;;;;;;;;;5032829;28;20168;-74
2023/08/29 13:04:16;;;;;;;6.38;1.60;;;;;;;;;;5034877;28;20509;-74
2023/08/29 13:06:43;;;;;;;8.63;1.92;;;;;;;;;;5032279;28;20040;-74
2023/08/29 13:09:09;;;;;;;6.22;1.90;;;;;;;;;;5038079;28;20032;-75
2023/08/29 13:11:36;;;;;;;5.82;1.60;;;;;;;;;;5039302;28;20016;-74
2023/08/29 13:14:03;;;;;;;6.50;1.67;;;;;;;;;;5038448;28;20052;-73
2023/08/29 13:16:32;;;;;;;7.47;1.58;;;;;;;;;;5031388;28;20093;-73
2023/08/29 13:18:59;;;;;;;7.38;1.70;;;;;;;;;;5041854;28;20585;-74
2023/08/29 13:21:25;;;;;;;12.15;3.85;;;;;;;;;;5030512;28;20137;-74
2023/08/29 13:23:51;;;;;;;18.90;3.78;;;;;;;;;;5036801;28;20032;-74
2023/08/29 13:26:21;;;;;;;31.73;4.05;;;;;;;;;;5040654;28;20089;-74
2023/08/29 13:28:47;;;;;;;18.08;3.70;;;;;;;;;;5040386;28;20114;-74
2023/08/29 13:31:15;;;;;;;21.25;4.30;;;;;;;;;;5039829;28;20063;-74
2023/08/29 13:33:42;;;;;;;19.85;3.78;;;;;;;;;;5034963;28;20626;-73
2023/08/29 13:36:08;;;;;;;15.68;3.10;;;;;;;;;;5036290;28;20577;-73
2023/08/29 13:38:34;;;;;;;24.42;4.28;;;;;;;;;;5033624;28;20440;-73
2023/08/29 13:41:01;;;;;;;16.52;2.97;;;;;;;;;;5034245;28;20063;-73
2023/08/29 13:43:27;;;;;;;18.52;3.70;;;;;;;;;;5034075;28;20074;-73
2023/08/29 13:45:53;;;;;;;11.13;2.75;;;;;;;;;;5042200;28;20777;-74
2023/08/29 13:48:20;;;;;;;10.57;2.90;;;;;;;;;;5031528;28;20084;-73
2023/08/29 13:50:46;;;;;;;16.05;3.40;;;;;;;;;;5037586;28;20055;-74
2023/08/29 13:53:13;;;;;;;15.40;3.50;;;;;;;;;;5040395;28;20430;-74
2023/08/29 13:55:39;;;;;;;11.98;2.90;;;;;;;;;;5033310;28;20852;-74
2023/08/29 13:58:05;;;;;;;19.63;3.40;;;;;;;;;;5040948;28;20265;-74
2023/08/29 14:00:31;;;;;;;12.73;3.20;;;;;;;;;;5032455;28;20052;-74
2023/08/29 14:02:58;;;;;;;15.15;3.30;;;;;;;;;;5036738;28;20115;-74
2023/08/29 14:05:24;;;;;;;26.85;5.28;;;;;;;;;;5032777;28;20029;-74
2023/08/29 14:07:50;;;;;;;14.07;3.08;;;;;;;;;;5031947;28;20308;-74
2023/08/29 14:10:17;;;;;;;12.82;3.20;;;;;;;;;;5042622;28;20034;-74
2023/08/29 14:12:44;;;;;;;13.48;3.15;;;;;;;;;;5036134;28;20061;-74
2023/08/29 14:15:11;;;;;;;15.38;3.35;;;;;;;;;;5035108;28;20512;-73
2023/08/29 14:17:37;;;;;;;13.95;3.60;;;;;;;;;;5036874;28;20040;-74
2023/08/29 14:20:05;;;;;;;15.80;3.28;;;;;;;;;;5034798;28;20097;-74
2023/08/29 14:22:31;;;;;;;10.02;2.95;;;;;;;;;;5038463;28;20023;-74
2023/08/29 14:25:01;;;;;;;10.00;2.58;;;;;;;;;;5044095;28;20367;-74
2023/08/29 14:27:27;;;;;;;11.02;3.00;;;;;;;;;;5038907;28;20021;-74
2023/08/29 14:29:53;;;;;;;14.40;3.30;;;;;;;;;;5039086;28;20484;-74
2023/08/29 14:32:19;;;;;;;10.65;2.75;;;;;;;;;;5036058;28;20365;-74
2023/08/29 14:34:46;;;;;;;11.00;2.90;;;;;;;;;;5049873;28;20406;-74